Aérodrome :
LOGIN :

S'inscrire | Disclaimer

   EN    FR    IT 

 










Légende :    VFR   VFR Marginal   IFR   IFR Intensif   IFR Très Intensif
Visi : 
Plafond : 
>= 8 km
>= 3000ft
5 à 8 km
1000 à 3000 ft
1500m à 5 km
500 à 1000 ft
800 à 1500m
200 à 500 ft
< 800m
< 200 ft
Symboles :   Orages  Brouillard  Fortes neiges  Fortes précipitations  Vent > 20 kt
SIGMETs :   Divers  Orages  Givrage  Turbulence  Onde Orograph.  Cendres Volcan.







- Altitude de l'aérodrome : 1161 ft
- Code IATA : RJL


LELO - Logroño-Agoncillo

DERNIER METAR :
  • 172000Z 29006KT 260V340 9999 FEW030 BKN038 21/15 Q1018

METARs EXPIRÉS :
  • 171930Z 29007KT 240V340 9999 BKN035 BKN040 22/15 Q1018
  • 171900Z 31006KT 240V010 9999 BKN035 BKN040 22/15 Q1017
  • 171830Z 30007KT 230V360 9999 BKN035 BKN050 23/15 Q1017
  • 171800Z 31007KT 240V030 9999 FEW030 SCT050 23/15 Q1017
  • 171730Z VRB07G18KT 9999 FEW030 SCT050 24/15 Q1017

TAF TAF LELO
Valide du 17 à 18h jusqu'au 18 à 03h UTC


171700Z 1718/1803 29012KT 9999 FEW040
PROB40
TEMPO 1718/1722 FEW040TCU
Pas de NOTAMs connus pour ce terrain.



MET'MAP, la Météo Aéronautique d'un coup d'oeil ! - Copyright ORBIFLY Décembre 2007 - Disclaimer

ORBIFLY MET'MAP TEAM :

Programmation & Développement : Alexandra Zaïnal
Conception & Développement : Baudouin d'Aumeries
Co-Programmation & Développement : Marc-Olivier Méhu
Soutien technique & logistique : Manuel Goepfert

Contact : metmap@orbifly.com




SOURCES & CREDITS :

   NOAA